»·PEaware :: N8833D KTPA-KNEW

N8833D :: KTPA-KNEW

FLIGHT INFORMATION

Flight Status: Arrived
Operator: Privately registered:
United States
More flights under this callsign
Pilot: Cooper L. (8467)
Aircraft: ECLIPSE 500
(EA50)
More flights by this aircraft type
Origin: KTPA Tampa Intl
United States
Destination: KNEW Lakefront
United States
More flights between these airports :: More routes between these airports
Route: SYKES7 SIMMR REMIS Q100 REDFN Q105 HRV
File this flight plan on PilotEdge
Remarks:
Altitude:
(Current/Filed)
38,000ft
Speed:
(Current/Filed)
350kts
Departed: 04-Apr-17 06:30 PM
Arrived: 04-Apr-17 08:11 PM
Distance/Time
Traveled:
412nm/1:40
Distance/Time
To Go:
Arrived

Flight Plot

Page will automatically refresh every two minutes.

Flight plan parsing failed; only flown route is shown


Map Options




Map Legend


Flown Route
Filed Route
Departure Airport
Arrival Airport
Navaid (VOR, NDB)
Fix

Horizontal Profiles

Position Reports

Time Latitude Longitude Heading Altitude Ground
Speed
04-Apr-17 18:28 27.968647 -82.522751 163 29ft 0kts
04-Apr-17 18:29 27.968654 -82.525396 273 29ft 29kts
04-Apr-17 18:30 27.969026 -82.528720 324 29ft 0kts
04-Apr-17 18:31 27.977204 -82.528537 2 30ft 111kts
04-Apr-17 18:32 28.020762 -82.538025 325 1862ft 210kts
04-Apr-17 18:33 28.003653 -82.597088 214 3140ft 276kts
04-Apr-17 18:34 27.957135 -82.665013 228 4181ft 275kts
04-Apr-17 18:35 27.932506 -82.740911 266 5224ft 274kts
04-Apr-17 18:36 27.927789 -82.827011 262 6931ft 278kts
04-Apr-17 18:37 27.919890 -82.914620 261 8909ft 284kts
04-Apr-17 18:38 27.911036 -83.004240 260 10495ft 293kts
04-Apr-17 18:39 27.901539 -83.097883 260 11716ft 302kts
04-Apr-17 18:40 27.891854 -83.192380 261 12889ft 303kts
04-Apr-17 18:41 27.882122 -83.286520 261 14242ft 292kts
04-Apr-17 18:42 27.872671 -83.377336 262 15257ft 293kts
04-Apr-17 18:43 27.863108 -83.468724 262 16098ft 294kts
04-Apr-17 18:44 27.853409 -83.560865 263 16808ft 296kts
04-Apr-17 18:45 27.843633 -83.653154 263 17404ft 297kts
04-Apr-17 18:46 27.833723 -83.746048 264 18179ft 292kts
04-Apr-17 18:47 27.824107 -83.835901 264 18997ft 289kts
04-Apr-17 18:48 27.814394 -83.925589 264 19937ft 280kts
04-Apr-17 18:49 27.805299 -84.009274 264 21209ft 268kts
04-Apr-17 18:50 27.796222 -84.092321 265 22359ft 258kts
04-Apr-17 18:51 27.787436 -84.172377 265 23277ft 259kts
04-Apr-17 18:52 27.788952 -84.253104 276 24062ft 259kts
04-Apr-17 18:53 27.796825 -84.334198 276 24706ft 262kts
04-Apr-17 18:54 27.804804 -84.416451 276 25307ft 265kts
04-Apr-17 18:55 27.812817 -84.499154 276 25834ft 267kts
04-Apr-17 18:56 27.820041 -84.574210 276 27650ft 230kts
04-Apr-17 18:57 27.826924 -84.646001 277 28495ft 233kts
04-Apr-17 18:58 27.833858 -84.718647 276 29317ft 236kts
04-Apr-17 18:59 27.840881 -84.792778 276 30097ft 239kts
04-Apr-17 19:00 27.847513 -84.863174 277 31511ft 216kts
04-Apr-17 19:01 27.853886 -84.930969 277 31997ft 232kts
04-Apr-17 19:02 27.861110 -85.008031 275 31996ft 261kts
04-Apr-17 19:03 27.868910 -85.092494 275 31994ft 279kts
04-Apr-17 19:04 27.877256 -85.183235 275 31412ft 307kts
04-Apr-17 19:05 27.891840 -85.282173 286 30404ft 333kts
04-Apr-17 19:06 27.921650 -85.381487 287 29990ft 330kts
04-Apr-17 19:07 27.950643 -85.477564 287 29988ft 316kts
04-Apr-17 19:08 27.978101 -85.568657 287 29988ft 296kts
04-Apr-17 19:09 28.004661 -85.657032 286 29992ft 297kts
04-Apr-17 19:10 28.031205 -85.745521 286 29996ft 297kts
04-Apr-17 19:11 28.054983 -85.824998 286 29995ft 297kts
04-Apr-17 19:12 28.078398 -85.903448 286 29995ft 297kts
04-Apr-17 19:13 28.104569 -85.991343 286 29994ft 297kts
04-Apr-17 19:14 28.130942 -86.080168 286 29993ft 297kts
04-Apr-17 19:15 28.157169 -86.168728 286 29992ft 297kts
04-Apr-17 19:16 28.183400 -86.257536 286 29992ft 297kts
04-Apr-17 19:17 28.209605 -86.346496 286 29991ft 297kts
04-Apr-17 19:18 28.235658 -86.435177 286 29937ft 298kts
04-Apr-17 19:19 28.261758 -86.524226 286 29908ft 298kts
04-Apr-17 19:20 28.287821 -86.613445 286 29907ft 298kts
04-Apr-17 19:21 28.313798 -86.702584 286 29916ft 298kts
04-Apr-17 19:22 28.339965 -86.791853 286 29915ft 298kts
04-Apr-17 19:23 28.366011 -86.880929 286 29914ft 298kts
04-Apr-17 19:24 28.392032 -86.970153 286 29913ft 298kts
04-Apr-17 19:25 28.417829 -87.058073 283 29908ft 269kts
04-Apr-17 19:26 28.441403 -87.139914 283 29911ft 273kts
04-Apr-17 19:27 28.465028 -87.221696 283 29909ft 273kts
04-Apr-17 19:28 28.488551 -87.303227 283 29908ft 272kts
04-Apr-17 19:29 28.512115 -87.385079 283 29907ft 272kts
04-Apr-17 19:30 28.535675 -87.467089 283 29906ft 272kts
04-Apr-17 19:31 28.559081 -87.548819 283 29905ft 272kts
04-Apr-17 19:32 28.582278 -87.629984 283 29904ft 272kts
04-Apr-17 19:33 28.605486 -87.711443 282 29918ft 271kts
04-Apr-17 19:34 28.628388 -87.791996 282 29917ft 271kts
04-Apr-17 19:35 28.651493 -87.873450 282 29915ft 271kts
04-Apr-17 19:36 28.674531 -87.954916 282 29914ft 271kts
04-Apr-17 19:37 28.697500 -88.036335 282 29913ft 271kts
04-Apr-17 19:38 28.720590 -88.118482 282 29550ft 284kts
04-Apr-17 19:39 28.745750 -88.207736 280 28551ft 307kts
04-Apr-17 19:40 28.767371 -88.285400 283 27701ft 310kts
04-Apr-17 19:41 28.797645 -88.393818 283 26499ft 306kts
04-Apr-17 19:42 28.823152 -88.485515 283 25988ft 302kts
04-Apr-17 19:43 28.844093 -88.561002 283 25987ft 301kts
04-Apr-17 19:44 28.872588 -88.664029 282 25996ft 300kts
04-Apr-17 19:45 28.907397 -88.733281 302 25999ft 314kts
04-Apr-17 19:46 28.973457 -88.821588 302 25968ft 316kts
04-Apr-17 19:47 29.020880 -88.884670 302 25916ft 311kts
04-Apr-17 19:48 29.077102 -88.959572 302 25916ft 310kts
04-Apr-17 19:49 29.130755 -89.031116 302 25911ft 311kts
04-Apr-17 19:50 29.186678 -89.105823 302 25910ft 311kts
04-Apr-17 19:51 29.242815 -89.180957 302 25909ft 310kts
04-Apr-17 19:52 29.298715 -89.255912 302 25882ft 310kts
04-Apr-17 19:53 29.353425 -89.329403 302 25881ft 310kts
04-Apr-17 19:54 29.409024 -89.404225 302 25890ft 310kts
04-Apr-17 19:55 29.464487 -89.479007 302 25986ft 310kts
04-Apr-17 19:56 29.520151 -89.554205 302 25986ft 311kts
04-Apr-17 19:57 29.576236 -89.629951 301 25984ft 307kts
04-Apr-17 19:58 29.631202 -89.704671 302 24645ft 303kts
04-Apr-17 19:59 29.681316 -89.768320 323 21151ft 268kts
04-Apr-17 20:00 29.749391 -89.796481 330 17700ft 257kts
04-Apr-17 20:01 29.816793 -89.827855 331 14231ft 284kts
04-Apr-17 20:02 29.891735 -89.863863 332 10754ft 300kts
04-Apr-17 20:03 29.965590 -89.899614 333 7274ft 273kts
04-Apr-17 20:04 30.033230 -89.932528 334 4390ft 276kts
04-Apr-17 20:05 30.100605 -89.965308 334 2904ft 238kts
04-Apr-17 20:06 30.157597 -89.993570 336 1706ft 207kts
04-Apr-17 20:07 30.200607 -90.022764 270 1687ft 195kts
04-Apr-17 20:08 30.167123 -90.032906 154 1666ft 156kts
04-Apr-17 20:09 30.122800 -90.030984 176 1402ft 155kts
04-Apr-17 20:10 30.082854 -90.030488 176 627ft 129kts
04-Apr-17 20:11 30.051457 -90.029929 175 31ft 97kts
04-Apr-17 20:12 30.044194 -90.028625 180 9ft 17kts
04-Apr-17 20:13 30.036994 -90.028430 117 9ft 12kts
04-Apr-17 20:14 30.036426 -90.025660 132 9ft 0kts

Navigation Log

Ident Type
Flight plan parsing failed, navigation log unavailable